^^
Meteo Knjazevac Station Historical Data
Daily Summary for February 15, 2021 Units:  Both    English   Metric
Daily Weekly Monthly Yearly Custom
  High: Low: Average:
Temperature: 88.7 °F /  31.5 °C 50.5 °F /  10.3 °C 67.8 °F /  19.9 °C
Dew Point: 61 °F /  16.1 °C 46.4 °F /  8 °C 53.1 °F /  11.7 °C
Humidity: 88% 34% 63%
Wind Speed: 9mph /  14.5km/h - 1.5mph /  2.4km/h
Wind Gust: 15mph /  24.1km/h - -
Wind- - SW
Pressure: 30.15 in /  1020.9 hPa 30.06 in /  1017.8 hPa -
Precipitation: 0.00 in /  0 mm    
Historical Graphs
 
 
Tabular Data for February 15, 2021
Time Temperature Dew Point Pressure Wind Wind Speed Wind Gust Humidity Rainfall Rate (Hourly) solar Conditions
00:00 59.5 °F /  15.3 °C 50.5 °F /  10.3 °C 30.12in /  1019.9hPa NW 2mph /  3.2km/h 3mph /  4.8km/h 72% 0.00in /  0mm 0 W/m2
00:10 59.4 °F /  15.2 °C 50.3 °F /  10.2 °C 30.12in /  1019.9hPa WNW 1mph /  1.6km/h 3mph /  4.8km/h 72% 0.00in /  0mm 0 W/m2
00:20 59 °F /  15 °C 50 °F /  10 °C 30.12in /  1019.9hPa WNW 1mph /  1.6km/h 4mph /  6.4km/h 72% 0.00in /  0mm 0 W/m2
00:30 58.6 °F /  14.8 °C 50 °F /  10 °C 30.12in /  1019.9hPa WNW 2mph /  3.2km/h 5mph /  8km/h 73% 0.00in /  0mm 0 W/m2
00:40 58.3 °F /  14.6 °C 49.7 °F /  9.8 °C 30.12in /  1019.9hPa Calm   5mph /  8km/h 73% 0.00in /  0mm 0 W/m2
00:50 57.7 °F /  14.3 °C 49.1 °F /  9.5 °C 30.12in /  1019.9hPa Calm   2mph /  3.2km/h 73% 0.00in /  0mm 0 W/m2
01:00 57.4 °F /  14.1 °C 49.2 °F /  9.6 °C 30.12in /  1019.9hPa Calm   2mph /  3.2km/h 74% 0.00in /  0mm 0 W/m2
01:10 57.2 °F /  14 °C 49 °F /  9.4 °C 30.12in /  1019.9hPa Calm   1mph /  1.6km/h 74% 0.00in /  0mm 0 W/m2
01:20 56.8 °F /  13.8 °C 48.6 °F /  9.2 °C 30.12in /  1019.9hPa Calm   1mph /  1.6km/h 74% 0.00in /  0mm 0 W/m2
01:30 56.7 °F /  13.7 °C 48.8 °F /  9.3 °C 30.12in /  1019.9hPa Calm   2mph /  3.2km/h 75% 0.00in /  0mm 0 W/m2
01:40 56.2 °F /  13.4 °C 48.3 °F /  9.1 °C 30.12in /  1019.9hPa Calm   1mph /  1.6km/h 75% 0.00in /  0mm 0 W/m2
01:50 55.8 °F /  13.2 °C 48.7 °F /  9.3 °C 30.12in /  1019.9hPa Calm   2mph /  3.2km/h 77% 0.00in /  0mm 0 W/m2
02:00 55.4 °F /  13 °C 48.3 °F /  9.1 °C 30.12in /  1019.9hPa Calm   1mph /  1.6km/h 77% 0.00in /  0mm 0 W/m2
02:10 55.2 °F /  12.9 °C 48.1 °F /  8.9 °C 30.12in /  1019.9hPa Calm   2mph /  3.2km/h 77% 0.00in /  0mm 0 W/m2
02:20 54.9 °F /  12.7 °C 48.1 °F /  8.9 °C 30.12in /  1019.9hPa Calm   2mph /  3.2km/h 78% 0.00in /  0mm 0 W/m2
02:30 54.7 °F /  12.6 °C 48 °F /  8.9 °C 30.12in /  1019.9hPa Calm   1mph /  1.6km/h 78% 0.00in /  0mm 0 W/m2
02:40 54.3 °F /  12.4 °C 47.9 °F /  8.8 °C 30.12in /  1019.9hPa Calm   2mph /  3.2km/h 79% 0.00in /  0mm 0 W/m2
02:50 54.1 °F /  12.3 °C 47.8 °F /  8.8 °C 30.13in /  1020.2hPa Calm   2mph /  3.2km/h 79% 0.00in /  0mm 0 W/m2
03:00 54.1 °F /  12.3 °C 47.8 °F /  8.8 °C 30.13in /  1020.2hPa Calm   2mph /  3.2km/h 79% 0.00in /  0mm 0 W/m2
03:10 54 °F /  12.2 °C 47.9 °F /  8.8 °C 30.13in /  1020.2hPa Calm   1mph /  1.6km/h 80% 0.00in /  0mm 0 W/m2
03:20 53.8 °F /  12.1 °C 47.4 °F /  8.6 °C 30.12in /  1019.9hPa Calm   1mph /  1.6km/h 79% 0.00in /  0mm 0 W/m2
03:30 53.6 °F /  12 °C 47.6 °F /  8.7 °C 30.13in /  1020.2hPa Calm   2mph /  3.2km/h 80% 0.00in /  0mm 0 W/m2
03:40 53.4 °F /  11.9 °C 47.4 °F /  8.6 °C 30.13in /  1020.2hPa Calm   1mph /  1.6km/h 80% 0.00in /  0mm 0 W/m2
03:50 53.2 °F /  11.8 °C 47.2 °F /  8.4 °C 30.13in /  1020.2hPa Calm   2mph /  3.2km/h 80% 0.00in /  0mm 0 W/m2
04:00 53.2 °F /  11.8 °C 47.6 °F /  8.7 °C 30.13in /  1020.2hPa Calm   2mph /  3.2km/h 81% 0.00in /  0mm 0 W/m2
04:10 52.9 °F /  11.6 °C 47.2 °F /  8.4 °C 30.13in /  1020.2hPa Calm   2mph /  3.2km/h 81% 0.00in /  0mm 0 W/m2
04:20 52.7 °F /  11.5 °C 47 °F /  8.3 °C 30.13in /  1020.2hPa NW 1mph /  1.6km/h 2mph /  3.2km/h 81% 0.00in /  0mm 0 W/m2
04:30 52.5 °F /  11.4 °C 47.5 °F /  8.6 °C 30.13in /  1020.2hPa West 2mph /  3.2km/h 2mph /  3.2km/h 83% 0.00in /  0mm 0 W/m2
04:40 52.3 °F /  11.3 °C 47.3 °F /  8.5 °C 30.13in /  1020.2hPa West 1mph /  1.6km/h 2mph /  3.2km/h 83% 0.00in /  0mm 0 W/m2
04:50 52.2 °F /  11.2 °C 47.5 °F /  8.6 °C 30.13in /  1020.2hPa WNW 1mph /  1.6km/h 4mph /  6.4km/h 84% 0.00in /  0mm 0 W/m2
05:00 52.2 °F /  11.2 °C 47.5 °F /  8.6 °C 30.13in /  1020.2hPa WNW 1mph /  1.6km/h 3mph /  4.8km/h 84% 0.00in /  0mm 0 W/m2
05:10 51.8 °F /  11 °C 47.1 °F /  8.4 °C 30.13in /  1020.2hPa WSW 2mph /  3.2km/h 3mph /  4.8km/h 84% 0.00in /  0mm 0 W/m2
05:20 51.6 °F /  10.9 °C 46.9 °F /  8.3 °C 30.14in /  1020.5hPa WSW 2mph /  3.2km/h 3mph /  4.8km/h 84% 0.00in /  0mm 0 W/m2
05:30 51.4 °F /  10.8 °C 47.1 °F /  8.4 °C 30.14in /  1020.5hPa WNW 1mph /  1.6km/h 2mph /  3.2km/h 85% 0.00in /  0mm 0 W/m2
05:40 51.4 °F /  10.8 °C 47.1 °F /  8.4 °C 30.14in /  1020.5hPa Calm   2mph /  3.2km/h 85% 0.00in /  0mm 0 W/m2
05:50 51.3 °F /  10.7 °C 46.9 °F /  8.3 °C 30.14in /  1020.5hPa NW 1mph /  1.6km/h 2mph /  3.2km/h 85% 0.00in /  0mm 0 W/m2
06:00 51.3 °F /  10.7 °C 46.9 °F /  8.3 °C 30.14in /  1020.5hPa WNW 1mph /  1.6km/h 2mph /  3.2km/h 85% 0.00in /  0mm 0 W/m2
06:10 50.9 °F /  10.5 °C 46.6 °F /  8.1 °C 30.14in /  1020.5hPa Calm   1mph /  1.6km/h 85% 0.00in /  0mm 4 W/m2
06:20 50.7 °F /  10.4 °C 46.4 °F /  8 °C 30.14in /  1020.5hPa WSW 1mph /  1.6km/h 2mph /  3.2km/h 85% 0.00in /  0mm 10 W/m2
06:30 50.5 °F /  10.3 °C 46.5 °F /  8.1 °C 30.14in /  1020.5hPa West 1mph /  1.6km/h 4mph /  6.4km/h 86% 0.00in /  0mm 19 W/m2
06:40 50.7 °F /  10.4 °C 47.3 °F /  8.5 °C 30.15in /  1020.9hPa West 2mph /  3.2km/h 6mph /  9.7km/h 88% 0.00in /  0mm 30 W/m2
06:50 50.9 °F /  10.5 °C 46.9 °F /  8.3 °C 30.15in /  1020.9hPa NNW 1mph /  1.6km/h 2mph /  3.2km/h 86% 0.00in /  0mm 41 W/m2
07:00 51.1 °F /  10.6 °C 47.6 °F /  8.7 °C 30.15in /  1020.9hPa West 2mph /  3.2km/h 3mph /  4.8km/h 88% 0.00in /  0mm 66 W/m2
07:10 51.1 °F /  10.6 °C 47 °F /  8.3 °C 30.15in /  1020.9hPa West 2mph /  3.2km/h 3mph /  4.8km/h 86% 0.00in /  0mm 92 W/m2
07:20 51.4 °F /  10.8 °C 48 °F /  8.9 °C 30.15in /  1020.9hPa WNW 1mph /  1.6km/h 4mph /  6.4km/h 88% 0.00in /  0mm 117 W/m2
07:30 51.8 °F /  11 °C 48.3 °F /  9.1 °C 30.15in /  1020.9hPa WNW 1mph /  1.6km/h 2mph /  3.2km/h 88% 0.00in /  0mm 146 W/m2
07:40 52.3 °F /  11.3 °C 48.9 °F /  9.4 °C 30.15in /  1020.9hPa Calm   2mph /  3.2km/h 88% 0.00in /  0mm 176 W/m2
07:50 52.9 °F /  11.6 °C 49.4 °F /  9.7 °C 30.15in /  1020.9hPa Calm   1mph /  1.6km/h 88% 0.00in /  0mm 203 W/m2
08:00 53.8 °F /  12.1 °C 50.3 °F /  10.2 °C 30.15in /  1020.9hPa Calm   2mph /  3.2km/h 88% 0.00in /  0mm 237 W/m2
08:10 54.7 °F /  12.6 °C 50.6 °F /  10.3 °C 30.15in /  1020.9hPa West 1mph /  1.6km/h 2mph /  3.2km/h 86% 0.00in /  0mm 262 W/m2
08:20 55.7 °F /  13.2 °C 51.3 °F /  10.7 °C 30.15in /  1020.9hPa Calm   3mph /  4.8km/h 85% 0.00in /  0mm 318 W/m2
08:30 57.3 °F /  14.1 °C 52.5 °F /  11.4 °C 30.15in /  1020.9hPa SW 1mph /  1.6km/h 2mph /  3.2km/h 84% 0.00in /  0mm 364 W/m2
08:40 59.9 °F /  15.5 °C 53.7 °F /  12.1 °C 30.15in /  1020.9hPa SW 1mph /  1.6km/h 2mph /  3.2km/h 80% 0.00in /  0mm 337 W/m2
08:50 62 °F /  16.7 °C 55.1 °F /  12.8 °C 30.15in /  1020.9hPa West 1mph /  1.6km/h 3mph /  4.8km/h 78% 0.00in /  0mm 338 W/m2
09:00 64 °F /  17.8 °C 55.2 °F /  12.9 °C 30.15in /  1020.9hPa NW 2mph /  3.2km/h 5mph /  8km/h 73% 0.00in /  0mm 410 W/m2
09:10 65.8 °F /  18.8 °C 55.7 °F /  13.2 °C 30.15in /  1020.9hPa Calm   3mph /  4.8km/h 70% 0.00in /  0mm 213 W/m2
09:20 67.4 °F /  19.7 °C 56.5 °F /  13.6 °C 30.15in /  1020.9hPa West 1mph /  1.6km/h 2mph /  3.2km/h 68% 0.00in /  0mm 368 W/m2
09:30 69.1 °F /  20.6 °C 56.4 °F /  13.6 °C 30.15in /  1020.9hPa SW 1mph /  1.6km/h 2mph /  3.2km/h 64% 0.00in /  0mm 445 W/m2
09:40 70.5 °F /  21.4 °C 57.3 °F /  14.1 °C 30.14in /  1020.5hPa SW 1mph /  1.6km/h 2mph /  3.2km/h 63% 0.00in /  0mm 558 W/m2
09:50 72.1 °F /  22.3 °C 57.5 °F /  14.2 °C 30.14in /  1020.5hPa SW 1mph /  1.6km/h 2mph /  3.2km/h 60% 0.00in /  0mm 582 W/m2
10:00 73.6 °F /  23.1 °C 58.4 °F /  14.7 °C 30.14in /  1020.5hPa Calm   2mph /  3.2km/h 59% 0.00in /  0mm 390 W/m2
10:10 74.6 °F /  23.7 °C 58.4 °F /  14.7 °C 30.14in /  1020.5hPa WSW 1mph /  1.6km/h 3mph /  4.8km/h 57% 0.00in /  0mm 625 W/m2
10:20 75.6 °F /  24.2 °C 58.3 °F /  14.6 °C 30.14in /  1020.5hPa West 1mph /  1.6km/h 4mph /  6.4km/h 55% 0.00in /  0mm 644 W/m2
10:30 76.4 °F /  24.7 °C 58 °F /  14.4 °C 30.14in /  1020.5hPa WSW 1mph /  1.6km/h 3mph /  4.8km/h 53% 0.00in /  0mm 244 W/m2
10:40 76.6 °F /  24.8 °C 58.2 °F /  14.6 °C 30.14in /  1020.5hPa Calm   2mph /  3.2km/h 53% 0.00in /  0mm 217 W/m2
10:50 77.9 °F /  25.5 °C 58.8 °F /  14.9 °C 30.13in /  1020.2hPa Calm   2mph /  3.2km/h 52% 0.00in /  0mm 695 W/m2
11:00 79.5 °F /  26.4 °C 59.2 °F /  15.1 °C 30.13in /  1020.2hPa ESE 1mph /  1.6km/h 4mph /  6.4km/h 50% 0.00in /  0mm 709 W/m2
11:10 80.2 °F /  26.8 °C 58.8 °F /  14.9 °C 30.13in /  1020.2hPa SSE 1mph /  1.6km/h 4mph /  6.4km/h 48% 0.00in /  0mm 722 W/m2
11:20 81.3 °F /  27.4 °C 60.3 °F /  15.7 °C 30.13in /  1020.2hPa ENE 2mph /  3.2km/h 5mph /  8km/h 49% 0.00in /  0mm 733 W/m2
11:30 82.2 °F /  27.9 °C 60.6 °F /  15.9 °C 30.12in /  1019.9hPa ENE 2mph /  3.2km/h 6mph /  9.7km/h 48% 0.00in /  0mm 742 W/m2
11:40 83.3 °F /  28.5 °C 61 °F /  16.1 °C 30.12in /  1019.9hPa NNE 2mph /  3.2km/h 6mph /  9.7km/h 47% 0.00in /  0mm 750 W/m2
11:50 84.2 °F /  29 °C 60.6 °F /  15.9 °C 30.12in /  1019.9hPa North 3mph /  4.8km/h 6mph /  9.7km/h 45% 0.00in /  0mm 757 W/m2
12:00 84.9 °F /  29.4 °C 60.6 °F /  15.9 °C 30.11in /  1019.5hPa WNW 2mph /  3.2km/h 5mph /  8km/h 44% 0.00in /  0mm 761 W/m2
12:10 85.3 °F /  29.6 °C 58.2 °F /  14.6 °C 30.11in /  1019.5hPa East 3mph /  4.8km/h 7mph /  11.3km/h 40% 0.00in /  0mm 764 W/m2
12:20 85.5 °F /  29.7 °C 60.4 °F /  15.8 °C 30.11in /  1019.5hPa East 2mph /  3.2km/h 7mph /  11.3km/h 43% 0.00in /  0mm 766 W/m2
12:30 85.8 °F /  29.9 °C 58.7 °F /  14.8 °C 30.10in /  1019.2hPa WNW 2mph /  3.2km/h 6mph /  9.7km/h 40% 0.00in /  0mm 766 W/m2
12:40 86.5 °F /  30.3 °C 58.6 °F /  14.8 °C 30.10in /  1019.2hPa NNE 3mph /  4.8km/h 9mph /  14.5km/h 39% 0.00in /  0mm 764 W/m2
12:50 86.7 °F /  30.4 °C 58.8 °F /  14.9 °C 30.10in /  1019.2hPa ENE 2mph /  3.2km/h 7mph /  11.3km/h 39% 0.00in /  0mm 760 W/m2
13:00 87.1 °F /  30.6 °C 58.4 °F /  14.7 °C 30.10in /  1019.2hPa SSW 2mph /  3.2km/h 6mph /  9.7km/h 38% 0.00in /  0mm 755 W/m2
13:10 87.4 °F /  30.8 °C 58.7 °F /  14.8 °C 30.09in /  1018.8hPa SW 3mph /  4.8km/h 6mph /  9.7km/h 38% 0.00in /  0mm 748 W/m2
13:20 88 °F /  31.1 °C 58.4 °F /  14.7 °C 30.09in /  1018.8hPa SSW 2mph /  3.2km/h 7mph /  11.3km/h 37% 0.00in /  0mm 740 W/m2
13:30 88 °F /  31.1 °C 56.9 °F /  13.8 °C 30.09in /  1018.8hPa SW 2mph /  3.2km/h 7mph /  11.3km/h 35% 0.00in /  0mm 730 W/m2
13:40 88.3 °F /  31.3 °C 58.8 °F /  14.9 °C 30.08in /  1018.5hPa West 2mph /  3.2km/h 8mph /  12.9km/h 37% 0.00in /  0mm 719 W/m2
13:50 88.5 °F /  31.4 °C 57.4 °F /  14.1 °C 30.08in /  1018.5hPa West 2mph /  3.2km/h 7mph /  11.3km/h 35% 0.00in /  0mm 706 W/m2
14:00 88.5 °F /  31.4 °C 57.4 °F /  14.1 °C 30.07in /  1018.2hPa West 5mph /  8km/h 7mph /  11.3km/h 35% 0.00in /  0mm 691 W/m2
14:10 88.7 °F /  31.5 °C 57.5 °F /  14.2 °C 30.07in /  1018.2hPa West 2mph /  3.2km/h 7mph /  11.3km/h 35% 0.00in /  0mm 675 W/m2
14:20 88.7 °F /  31.5 °C 59.1 °F /  15.1 °C 30.06in /  1017.8hPa WSW 2mph /  3.2km/h 6mph /  9.7km/h 37% 0.00in /  0mm 658 W/m2
14:30 88.7 °F /  31.5 °C 56.7 °F /  13.7 °C 30.06in /  1017.8hPa West 1mph /  1.6km/h 5mph /  8km/h 34% 0.00in /  0mm 640 W/m2
14:40 88.7 °F /  31.5 °C 57.5 °F /  14.2 °C 30.06in /  1017.8hPa West 2mph /  3.2km/h 7mph /  11.3km/h 35% 0.00in /  0mm 139 W/m2
14:50 87.6 °F /  30.9 °C 56.6 °F /  13.7 °C 30.06in /  1017.8hPa West 2mph /  3.2km/h 8mph /  12.9km/h 35% 0.00in /  0mm 153 W/m2
15:00 86.9 °F /  30.5 °C 56 °F /  13.3 °C 30.06in /  1017.8hPa Calm   6mph /  9.7km/h 35% 0.00in /  0mm 576 W/m2
15:10 86.5 °F /  30.3 °C 57.2 °F /  14 °C 30.06in /  1017.8hPa Calm   5mph /  8km/h 37% 0.00in /  0mm 123 W/m2
15:20 85.8 °F /  29.9 °C 56.5 °F /  13.6 °C 30.06in /  1017.8hPa NW 3mph /  4.8km/h 6mph /  9.7km/h 37% 0.00in /  0mm 137 W/m2
15:30 85.1 °F /  29.5 °C 57.4 °F /  14.1 °C 30.06in /  1017.8hPa West 6mph /  9.7km/h 9mph /  14.5km/h 39% 0.00in /  0mm 140 W/m2
15:40 84.6 °F /  29.2 °C 56.9 °F /  13.8 °C 30.06in /  1017.8hPa WNW 5mph /  8km/h 10mph /  16.1km/h 39% 0.00in /  0mm 117 W/m2
15:50 84 °F /  28.9 °C 58.5 °F /  14.7 °C 30.06in /  1017.8hPa WNW 5mph /  8km/h 9mph /  14.5km/h 42% 0.00in /  0mm 241 W/m2
16:00 84 °F /  28.9 °C 55.7 °F /  13.2 °C 30.07in /  1018.2hPa WNW 8mph /  12.9km/h 13mph /  20.9km/h 38% 0.00in /  0mm 420 W/m2
16:10 83.3 °F /  28.5 °C 52.8 °F /  11.6 °C 30.06in /  1017.8hPa West 9mph /  14.5km/h 15mph /  24.1km/h 35% 0.00in /  0mm 177 W/m2
16:20 82.6 °F /  28.1 °C 53.7 °F /  12.1 °C 30.07in /  1018.2hPa WNW 5mph /  8km/h 14mph /  22.5km/h 37% 0.00in /  0mm 242 W/m2
16:30 82.6 °F /  28.1 °C 53.7 °F /  12.1 °C 30.06in /  1017.8hPa WNW 2mph /  3.2km/h 8mph /  12.9km/h 37% 0.00in /  0mm 219 W/m2
16:40 82.4 °F /  28 °C 53.5 °F /  11.9 °C 30.06in /  1017.8hPa NW 2mph /  3.2km/h 6mph /  9.7km/h 37% 0.00in /  0mm 302 W/m2
16:50 82.4 °F /  28 °C 54.2 °F /  12.3 °C 30.06in /  1017.8hPa WNW 2mph /  3.2km/h 7mph /  11.3km/h 38% 0.00in /  0mm 265 W/m2
17:00 82.4 °F /  28 °C 54.2 °F /  12.3 °C 30.06in /  1017.8hPa West 2mph /  3.2km/h 6mph /  9.7km/h 38% 0.00in /  0mm 242 W/m2
17:10 82.4 °F /  28 °C 54.3 °F /  12.4 °C 30.07in /  1018.2hPa South 1mph /  1.6km/h 5mph /  8km/h 38% 0.00in /  0mm 157 W/m2
17:20 82.6 °F /  28.1 °C 54.4 °F /  12.4 °C 30.07in /  1018.2hPa WSW 3mph /  4.8km/h 6mph /  9.7km/h 38% 0.00in /  0mm 143 W/m2
17:30 82.4 °F /  28 °C 53.5 °F /  11.9 °C 30.07in /  1018.2hPa SW 3mph /  4.8km/h 7mph /  11.3km/h 37% 0.00in /  0mm 143 W/m2
17:40 82.2 °F /  27.9 °C 53.3 °F /  11.8 °C 30.06in /  1017.8hPa SW 1mph /  1.6km/h 5mph /  8km/h 37% 0.00in /  0mm 109 W/m2
17:50 81.9 °F /  27.7 °C 55.2 °F /  12.9 °C 30.06in /  1017.8hPa South 1mph /  1.6km/h 5mph /  8km/h 40% 0.00in /  0mm 84 W/m2
18:00 81.5 °F /  27.5 °C 57.5 °F /  14.2 °C 30.06in /  1017.8hPa ESE 3mph /  4.8km/h 6mph /  9.7km/h 44% 0.00in /  0mm 67 W/m2
18:10 80.2 °F /  26.8 °C 59.9 °F /  15.5 °C 30.06in /  1017.8hPa East 5mph /  8km/h 9mph /  14.5km/h 50% 0.00in /  0mm 46 W/m2
18:20 79 °F /  26.1 °C 60.4 °F /  15.8 °C 30.06in /  1017.8hPa ESE 3mph /  4.8km/h 7mph /  11.3km/h 53% 0.00in /  0mm 23 W/m2
18:30 77.9 °F /  25.5 °C 60.4 °F /  15.8 °C 30.06in /  1017.8hPa SE 3mph /  4.8km/h 8mph /  12.9km/h 55% 0.00in /  0mm 10 W/m2
18:40 77 °F /  25 °C 60.6 °F /  15.9 °C 30.07in /  1018.2hPa ESE 3mph /  4.8km/h 7mph /  11.3km/h 57% 0.00in /  0mm 4 W/m2
18:50 76.3 °F /  24.6 °C 60.9 °F /  16.1 °C 30.07in /  1018.2hPa ESE 2mph /  3.2km/h 5mph /  8km/h 59% 0.00in /  0mm 0 W/m2
19:00 75.6 °F /  24.2 °C 60.2 °F /  15.7 °C 30.08in /  1018.5hPa ENE 3mph /  4.8km/h 10mph /  16.1km/h 59% 0.00in /  0mm 0 W/m2
19:10 74.8 °F /  23.8 °C 59.5 °F /  15.3 °C 30.08in /  1018.5hPa ENE 2mph /  3.2km/h 7mph /  11.3km/h 59% 0.00in /  0mm 0 W/m2
19:20 74.1 °F /  23.4 °C 60.3 °F /  15.7 °C 30.08in /  1018.5hPa NNE 5mph /  8km/h 6mph /  9.7km/h 62% 0.00in /  0mm 0 W/m2
19:30 73.4 °F /  23 °C 59.6 °F /  15.3 °C 30.08in /  1018.5hPa NE 5mph /  8km/h 8mph /  12.9km/h 62% 0.00in /  0mm 0 W/m2
19:40 72.7 °F /  22.6 °C 58.9 °F /  14.9 °C 30.08in /  1018.5hPa ENE 1mph /  1.6km/h 6mph /  9.7km/h 62% 0.00in /  0mm 0 W/m2
19:50 71.8 °F /  22.1 °C 56.7 °F /  13.7 °C 30.08in /  1018.5hPa Calm   2mph /  3.2km/h 59% 0.00in /  0mm 0 W/m2
20:00 70.5 °F /  21.4 °C 55.5 °F /  13.1 °C 30.09in /  1018.8hPa Calm   2mph /  3.2km/h 59% 0.00in /  0mm 0 W/m2
20:10 69.4 °F /  20.8 °C 54.5 °F /  12.5 °C 30.09in /  1018.8hPa WSW 1mph /  1.6km/h 2mph /  3.2km/h 59% 0.00in /  0mm 0 W/m2
20:20 68.2 °F /  20.1 °C 53.7 °F /  12.1 °C 30.09in /  1018.8hPa Calm   3mph /  4.8km/h 60% 0.00in /  0mm 0 W/m2
20:30 67.3 °F /  19.6 °C 53.8 °F /  12.1 °C 30.09in /  1018.8hPa West 1mph /  1.6km/h 2mph /  3.2km/h 62% 0.00in /  0mm 0 W/m2
20:40 66.4 °F /  19.1 °C 53.4 °F /  11.9 °C 30.09in /  1018.8hPa WSW 2mph /  3.2km/h 4mph /  6.4km/h 63% 0.00in /  0mm 0 W/m2
20:50 65.3 °F /  18.5 °C 52.4 °F /  11.3 °C 30.09in /  1018.8hPa WSW 2mph /  3.2km/h 4mph /  6.4km/h 63% 0.00in /  0mm 0 W/m2
21:00 64.6 °F /  18.1 °C 52.1 °F /  11.2 °C 30.09in /  1018.8hPa WSW 2mph /  3.2km/h 5mph /  8km/h 64% 0.00in /  0mm 0 W/m2
21:10 64 °F /  17.8 °C 52 °F /  11.1 °C 30.10in /  1019.2hPa WNW 1mph /  1.6km/h 3mph /  4.8km/h 65% 0.00in /  0mm 0 W/m2
21:20 63.5 °F /  17.5 °C 52.3 °F /  11.3 °C 30.10in /  1019.2hPa WNW 1mph /  1.6km/h 2mph /  3.2km/h 67% 0.00in /  0mm 0 W/m2
21:30 62.6 °F /  17 °C 50.7 °F /  10.4 °C 30.10in /  1019.2hPa WSW 1mph /  1.6km/h 2mph /  3.2km/h 65% 0.00in /  0mm 0 W/m2
21:40 61.9 °F /  16.6 °C 50.8 °F /  10.4 °C 30.10in /  1019.2hPa WSW 1mph /  1.6km/h 3mph /  4.8km/h 67% 0.00in /  0mm 0 W/m2
22:00 61.3 °F /  16.3 °C 51 °F /  10.6 °C 30.10in /  1019.2hPa Calm   2mph /  3.2km/h 69% 0.00in /  0mm 0 W/m2
22:10 61 °F /  16.1 °C 50.7 °F /  10.4 °C 30.10in /  1019.2hPa Calm   2mph /  3.2km/h 69% 0.00in /  0mm 0 W/m2
22:20 60.4 °F /  15.8 °C 50.2 °F /  10.1 °C 30.10in /  1019.2hPa Calm   2mph /  3.2km/h 69% 0.00in /  0mm 0 W/m2
22:30 59.7 °F /  15.4 °C 49.5 °F /  9.7 °C 30.10in /  1019.2hPa Calm   2mph /  3.2km/h 69% 0.00in /  0mm 0 W/m2
22:40 59.2 °F /  15.1 °C 49.4 °F /  9.7 °C 30.10in /  1019.2hPa West 1mph /  1.6km/h 1mph /  1.6km/h 70% 0.00in /  0mm 0 W/m2
22:50 58.5 °F /  14.7 °C 49.5 °F /  9.7 °C 30.11in /  1019.5hPa West 1mph /  1.6km/h 3mph /  4.8km/h 72% 0.00in /  0mm 0 W/m2
23:00 57.9 °F /  14.4 °C 49.7 °F /  9.8 °C 30.11in /  1019.5hPa West 3mph /  4.8km/h 7mph /  11.3km/h 74% 0.00in /  0mm 0 W/m2
23:10 57.9 °F /  14.4 °C 49.7 °F /  9.8 °C 30.11in /  1019.5hPa WSW 1mph /  1.6km/h 6mph /  9.7km/h 74% 0.00in /  0mm 0 W/m2
23:20 57.6 °F /  14.2 °C 49.3 °F /  9.6 °C 30.11in /  1019.5hPa West 2mph /  3.2km/h 6mph /  9.7km/h 74% 0.00in /  0mm 0 W/m2
23:30 57.4 °F /  14.1 °C 49.2 °F /  9.6 °C 30.11in /  1019.5hPa WNW 2mph /  3.2km/h 5mph /  8km/h 74% 0.00in /  0mm 0 W/m2
23:40 57.3 °F /  14.1 °C 49.4 °F /  9.7 °C 30.11in /  1019.5hPa WNW 1mph /  1.6km/h 5mph /  8km/h 75% 0.00in /  0mm 0 W/m2
23:50 56.9 °F /  13.8 °C 49.1 °F /  9.5 °C 30.11in /  1019.5hPa West 1mph /  1.6km/h 3mph /  4.8km/h 75% 0.00in /  0mm 0 W/m2
Knjazevac, Serbia
Compliments of Weather Underground - 2 mb